createdAt,value
2019-05-16T00:00:52.939Z,11.41
2019-05-16T00:03:22.937Z,11.29
2019-05-16T00:05:54.625Z,11.39
2019-05-16T00:08:24.796Z,11.34
2019-05-16T00:10:54.825Z,11.13
2019-05-16T00:13:24.843Z,11.13
2019-05-16T00:15:54.809Z,11.35
2019-05-16T00:18:24.886Z,11.11
2019-05-16T00:20:54.978Z,11.30
2019-05-16T00:23:24.961Z,11.25
2019-05-16T00:25:54.991Z,11.42
2019-05-16T00:28:25.084Z,11.01
2019-05-16T00:30:55.049Z,11.16
2019-05-16T00:33:25.065Z,11.29
2019-05-16T00:36:02.515Z,11.36
2019-05-16T00:38:27.758Z,11.28
2019-05-16T00:40:59.110Z,11.33
2019-05-16T00:43:29.478Z,11.33
2019-05-16T00:45:59.469Z,11.16
2019-05-16T00:48:29.505Z,11.00
2019-05-16T00:50:59.469Z,11.16
2019-05-16T00:53:29.512Z,11.02
2019-05-16T00:56:00.084Z,11.12
2019-05-16T00:58:30.829Z,11.12
2019-05-16T01:01:00.789Z,11.06
2019-05-16T01:03:30.860Z,11.31
2019-05-16T01:06:00.864Z,11.29
2019-05-16T01:08:30.919Z,11.17
2019-05-16T01:11:01.236Z,11.11
2019-05-16T01:13:31.240Z,10.93
2019-05-16T01:16:01.210Z,11.09
2019-05-16T01:18:31.197Z,11.24
2019-05-16T01:21:01.200Z,10.97
2019-05-16T01:23:31.201Z,10.97
2019-05-16T01:26:01.175Z,10.92
2019-05-16T01:28:31.163Z,11.02
2019-05-16T01:31:01.130Z,11.02
2019-05-16T01:33:31.121Z,11.09
2019-05-16T01:36:01.105Z,11.10
2019-05-16T01:38:31.231Z,10.96
2019-05-16T01:41:01.185Z,11.10
2019-05-16T01:43:31.160Z,11.01
2019-05-16T01:46:01.130Z,11.17
2019-05-16T01:48:31.127Z,11.13
2019-05-16T01:51:01.117Z,11.02
2019-05-16T01:53:31.257Z,10.93
2019-05-16T01:56:01.277Z,11.04
2019-05-16T01:58:31.260Z,10.95
2019-05-16T02:01:11.913Z,11.11
2019-05-16T02:03:33.322Z,11.02
2019-05-16T02:06:03.298Z,11.01
2019-05-16T02:08:33.290Z,10.98
2019-05-16T02:11:03.244Z,11.21
2019-05-16T02:13:33.309Z,10.91
2019-05-16T02:16:03.305Z,10.80
2019-05-16T02:18:33.296Z,10.81
2019-05-16T02:21:11.244Z,10.86
2019-05-16T02:27:20.860Z,11.10
2019-05-16T02:29:50.907Z,11.00
2019-05-16T02:32:22.290Z,10.88
2019-05-16T02:34:52.442Z,10.84
2019-05-16T02:37:29.161Z,10.95
2019-05-16T02:39:54.488Z,10.95
2019-05-16T02:42:24.917Z,10.81
2019-05-16T02:44:54.990Z,10.83
2019-05-16T02:47:24.948Z,10.91
2019-05-16T02:49:55.016Z,11.00
2019-05-16T02:52:24.983Z,10.99
2019-05-16T02:54:55.041Z,10.94
2019-05-16T02:57:25.002Z,10.94
2019-05-16T02:59:55.095Z,11.00
2019-05-16T03:02:25.094Z,10.98
2019-05-16T03:04:55.206Z,10.99
2019-05-16T03:07:37.723Z,10.85
2019-05-16T03:10:01.177Z,11.19
2019-05-16T03:12:31.135Z,10.79
2019-05-16T03:15:02.675Z,10.90
2019-05-16T03:17:35.941Z,10.94
2019-05-16T03:20:06.586Z,11.12
2019-05-16T03:22:40.610Z,10.90
2019-05-16T03:25:11.518Z,10.89
2019-05-16T03:27:41.695Z,10.92
2019-05-16T03:30:15.798Z,10.94
2019-05-16T03:32:45.791Z,10.85
2019-05-16T03:35:16.902Z,11.04
2019-05-16T03:37:59.349Z,10.77
2019-05-16T03:40:24.973Z,10.78
2019-05-16T03:42:54.977Z,11.04
2019-05-16T03:45:24.979Z,10.90
2019-05-16T03:47:54.961Z,10.76
2019-05-16T03:50:24.939Z,10.76
2019-05-16T03:52:54.924Z,10.75
2019-05-16T03:55:24.938Z,10.73
2019-05-16T03:57:54.943Z,10.78
2019-05-16T04:00:55.352Z,10.74
2019-05-16T04:03:28.624Z,10.80
2019-05-16T04:06:00.794Z,10.81
2019-05-16T04:08:31.010Z,10.86
2019-05-16T04:11:01.690Z,10.78
2019-05-16T04:13:32.224Z,10.92
2019-05-16T04:16:02.249Z,10.93
2019-05-16T04:18:32.339Z,10.83
2019-05-16T04:21:02.410Z,10.88
2019-05-16T04:23:32.387Z,10.88
2019-05-16T04:26:02.395Z,10.80
2019-05-16T04:28:32.433Z,10.91
2019-05-16T04:31:02.521Z,10.90
2019-05-16T04:33:32.496Z,10.83
2019-05-16T04:36:02.546Z,10.94
2019-05-16T04:38:40.723Z,10.87
2019-05-16T04:41:04.215Z,11.07
2019-05-16T04:43:34.198Z,11.02
2019-05-16T04:46:04.297Z,11.04
2019-05-16T04:48:34.287Z,11.25
2019-05-16T04:51:04.258Z,11.10
2019-05-16T04:53:34.262Z,10.95
2019-05-16T04:56:04.228Z,11.06
2019-05-16T04:58:34.229Z,10.91
2019-05-16T05:01:04.193Z,11.17
2019-05-16T05:03:34.174Z,11.24
2019-05-16T05:06:04.199Z,11.13
2019-05-16T05:08:49.357Z,11.25
2019-05-16T05:11:05.874Z,11.21
2019-05-16T05:13:35.854Z,11.18
2019-05-16T05:16:05.826Z,11.21
2019-05-16T05:18:35.807Z,11.14
2019-05-16T05:21:05.984Z,11.24
2019-05-16T05:23:36.013Z,11.20
2019-05-16T05:26:05.969Z,11.20
2019-05-16T05:28:35.987Z,11.46
2019-05-16T05:31:05.950Z,11.34
2019-05-16T05:33:35.945Z,11.28
2019-05-16T05:36:05.950Z,11.30
2019-05-16T05:38:35.949Z,11.41
2019-05-16T05:41:05.897Z,11.43
2019-05-16T05:43:35.931Z,11.56
2019-05-16T05:46:05.917Z,11.53
2019-05-16T05:48:35.927Z,11.68
2019-05-16T05:51:05.898Z,11.68
2019-05-16T05:53:35.893Z,11.61
2019-05-16T05:56:05.924Z,11.69
2019-05-16T05:58:36.285Z,11.67
2019-05-16T06:01:06.246Z,11.39
2019-05-16T06:03:36.242Z,11.39
2019-05-16T06:06:06.201Z,11.55
2019-05-16T06:08:36.213Z,11.57
2019-05-16T06:11:06.184Z,11.60
2019-05-16T06:13:36.165Z,11.59
2019-05-16T06:16:06.169Z,11.46
2019-05-16T06:18:36.158Z,11.43
2019-05-16T06:21:06.165Z,11.51
2019-05-16T06:23:36.172Z,11.48
2019-05-16T06:26:06.163Z,11.57
2019-05-16T06:28:36.169Z,11.51
2019-05-16T06:31:06.172Z,11.41
2019-05-16T06:33:36.161Z,11.51
2019-05-16T06:36:06.247Z,11.56
2019-05-16T06:38:36.252Z,11.48
2019-05-16T06:41:06.229Z,11.56
2019-05-16T06:43:36.247Z,11.59
2019-05-16T06:46:06.230Z,11.58
2019-05-16T06:48:36.224Z,11.60
2019-05-16T06:51:06.201Z,11.60
2019-05-16T06:53:36.223Z,11.53
2019-05-16T06:56:06.172Z,11.63
2019-05-16T06:58:45.688Z,11.55
2019-05-16T07:01:10.387Z,11.64
2019-05-16T07:03:40.092Z,11.74
2019-05-16T07:06:26.245Z,11.85
2019-05-16T07:08:41.972Z,11.85
2019-05-16T07:11:11.947Z,11.58
2019-05-16T07:13:41.951Z,11.61
2019-05-16T07:16:11.967Z,11.62
2019-05-16T07:18:41.964Z,11.76
2019-05-16T07:21:11.952Z,11.77
2019-05-16T07:23:41.967Z,11.77
2019-05-16T07:26:11.939Z,11.59
2019-05-16T07:28:41.902Z,11.72
2019-05-16T07:31:17.868Z,11.41
2019-05-16T07:33:43.545Z,11.26
2019-05-16T07:36:15.899Z,11.61
2019-05-16T07:38:45.378Z,11.54
2019-05-16T07:41:15.394Z,11.45
2019-05-16T07:43:45.352Z,11.64
2019-05-16T07:46:15.342Z,11.72
2019-05-16T07:48:45.307Z,11.63
2019-05-16T07:51:15.298Z,11.52
2019-05-16T07:53:45.261Z,11.57
2019-05-16T07:56:15.241Z,11.47
2019-05-16T07:58:45.193Z,11.43
2019-05-16T08:01:15.188Z,11.69
2019-05-16T08:03:45.127Z,11.47
2019-05-16T08:06:15.124Z,11.47
2019-05-16T08:08:45.096Z,11.13
2019-05-16T08:11:15.072Z,11.13
2019-05-16T08:13:45.076Z,11.06
2019-05-16T08:16:15.073Z,11.02
2019-05-16T08:18:45.378Z,11.23
2019-05-16T08:21:16.952Z,11.13
2019-05-16T08:23:47.124Z,11.09
2019-05-16T08:26:21.519Z,11.04
2019-05-16T08:28:50.288Z,11.07
2019-05-16T08:31:21.364Z,11.00
2019-05-16T08:33:54.761Z,11.12
2019-05-16T08:36:23.389Z,11.14
2019-05-16T08:38:53.377Z,11.07
2019-05-16T08:41:23.407Z,10.94
2019-05-16T08:43:53.683Z,10.87
2019-05-16T08:46:23.741Z,10.99
2019-05-16T08:48:54.400Z,10.84
2019-05-16T08:51:24.478Z,10.74
2019-05-16T08:53:54.443Z,10.74
2019-05-16T08:56:24.493Z,10.61
2019-05-16T08:58:54.591Z,10.65
2019-05-16T09:01:24.622Z,10.62
2019-05-16T09:03:54.587Z,10.68
2019-05-16T09:06:24.644Z,10.57
2019-05-16T09:08:58.645Z,10.67
2019-05-16T09:11:35.036Z,10.54
2019-05-16T09:13:58.033Z,10.88
2019-05-16T09:16:28.049Z,10.98
2019-05-16T09:18:58.065Z,10.66
2019-05-16T09:21:28.090Z,10.79
2019-05-16T09:23:58.128Z,10.82
2019-05-16T09:26:28.441Z,10.67
2019-05-16T09:28:58.453Z,10.87
2019-05-16T09:31:28.559Z,10.69
2019-05-16T09:33:58.551Z,10.95
2019-05-16T09:36:28.573Z,11.10
2019-05-16T09:38:58.502Z,10.97
2019-05-16T09:41:46.264Z,10.86
2019-05-16T09:44:00.286Z,10.97
2019-05-16T09:46:30.285Z,11.18
2019-05-16T09:49:15.710Z,11.01
2019-05-16T09:51:32.002Z,11.24
2019-05-16T09:54:02.099Z,11.22
2019-05-16T09:56:32.073Z,11.24
2019-05-16T09:59:02.083Z,11.39
2019-05-16T10:01:32.075Z,11.51
2019-05-16T10:04:02.100Z,11.36
2019-05-16T10:06:32.100Z,11.52
2019-05-16T10:09:02.111Z,11.39
2019-05-16T10:11:32.235Z,11.54
2019-05-16T10:14:02.161Z,11.66
2019-05-16T10:16:32.302Z,11.51
2019-05-16T10:19:02.325Z,11.55
2019-05-16T10:21:32.340Z,11.49
2019-05-16T10:24:02.313Z,11.74
2019-05-16T10:26:32.316Z,11.45
2019-05-16T10:29:02.297Z,11.31
2019-05-16T10:31:44.892Z,11.43
2019-05-16T10:34:04.090Z,11.55
2019-05-16T10:36:37.301Z,11.69
2019-05-16T10:39:07.910Z,11.32
2019-05-16T10:41:38.034Z,11.32
2019-05-16T10:44:08.043Z,11.15
2019-05-16T10:46:38.010Z,11.09
2019-05-16T10:49:07.999Z,11.12
2019-05-16T10:51:38.015Z,11.10
2019-05-16T10:54:13.795Z,11.20
2019-05-16T10:56:40.714Z,11.07
2019-05-16T10:59:50.349Z,10.92
2019-05-16T11:01:42.415Z,10.98
2019-05-16T11:04:27.929Z,10.99
2019-05-16T11:06:46.487Z,11.29
2019-05-16T11:09:17.362Z,11.12
2019-05-16T11:11:47.818Z,10.78
2019-05-16T11:14:17.899Z,11.00
2019-05-16T11:16:47.977Z,10.87
2019-05-16T11:19:24.205Z,10.67
2019-05-16T11:21:49.731Z,10.56
2019-05-16T11:24:19.784Z,10.59
2019-05-16T11:26:49.791Z,10.53
2019-05-16T11:29:19.839Z,10.45
2019-05-16T11:31:49.810Z,10.42
2019-05-16T11:34:19.828Z,10.60
2019-05-16T11:36:49.845Z,10.66
2019-05-16T11:39:20.193Z,10.57
2019-05-16T11:41:50.266Z,10.46
2019-05-16T11:44:20.275Z,10.55
2019-05-16T11:46:50.320Z,10.41
2019-05-16T11:49:20.356Z,10.23
2019-05-16T11:51:50.332Z,10.31
2019-05-16T11:54:20.360Z,10.45
2019-05-16T11:56:50.341Z,10.36
2019-05-16T11:59:20.354Z,10.53
2019-05-16T12:01:50.394Z,10.47
2019-05-16T12:04:20.398Z,10.52
2019-05-16T12:06:50.382Z,10.72
2019-05-16T12:09:20.386Z,10.63
2019-05-16T12:11:59.702Z,10.92
2019-05-16T12:14:22.217Z,11.11
2019-05-16T12:16:52.221Z,11.05
2019-05-16T12:19:22.256Z,10.81
2019-05-16T12:21:52.256Z,11.10
2019-05-16T12:24:33.229Z,11.13
2019-05-16T12:26:54.012Z,10.95
2019-05-16T12:29:24.033Z,11.51
2019-05-16T12:31:58.624Z,11.10
2019-05-16T12:34:25.703Z,11.21
2019-05-16T12:36:56.579Z,11.04
2019-05-16T12:39:26.934Z,11.04
2019-05-16T12:41:59.146Z,11.21
2019-05-16T12:44:28.680Z,10.91
2019-05-16T12:46:58.727Z,11.05
2019-05-16T12:49:28.827Z,11.10
2019-05-16T12:51:59.326Z,11.28
2019-05-16T12:54:29.317Z,11.12
2019-05-16T12:56:59.333Z,11.04
2019-05-16T12:59:29.319Z,11.19
2019-05-16T13:01:59.280Z,11.29
2019-05-16T13:04:29.293Z,11.41
2019-05-16T13:06:59.303Z,11.55
2019-05-16T13:09:29.294Z,11.45
2019-05-16T13:11:59.296Z,11.41
2019-05-16T13:14:29.288Z,11.70
2019-05-16T13:16:59.284Z,11.59
2019-05-16T13:19:33.411Z,11.73
2019-05-16T13:22:01.036Z,11.78
2019-05-16T13:24:30.987Z,11.81
2019-05-16T13:27:01.099Z,11.81
2019-05-16T13:29:31.089Z,11.93
2019-05-16T13:32:01.123Z,12.05
2019-05-16T13:34:31.088Z,12.05
2019-05-16T13:37:01.089Z,11.96
2019-05-16T13:39:31.050Z,12.23
2019-05-16T13:42:01.047Z,12.18
2019-05-16T13:44:31.030Z,12.26
2019-05-16T13:47:01.018Z,12.20
2019-05-16T13:49:31.012Z,12.19
2019-05-16T13:52:01.008Z,12.19
2019-05-16T13:54:30.973Z,12.20
2019-05-16T13:57:01.040Z,12.34
2019-05-16T13:59:31.115Z,12.23
2019-05-16T14:02:01.109Z,12.31
2019-05-16T14:04:31.090Z,12.33
2019-05-16T14:07:01.095Z,12.37
2019-05-16T14:09:31.074Z,12.44
2019-05-16T14:12:03.209Z,12.52
2019-05-16T14:14:38.075Z,12.43
2019-05-16T14:17:11.933Z,12.37
2019-05-16T14:19:37.565Z,12.35
2019-05-16T14:22:07.855Z,12.30
2019-05-16T14:24:37.748Z,12.21
2019-05-16T14:27:07.762Z,12.21
2019-05-16T14:29:37.973Z,12.42
2019-05-16T14:32:10.295Z,12.42
2019-05-16T14:34:39.675Z,12.42
2019-05-16T14:37:09.688Z,12.33
2019-05-16T14:39:39.673Z,12.31
2019-05-16T14:42:09.833Z,12.21
2019-05-16T14:44:59.770Z,12.28
2019-05-16T14:47:11.753Z,12.27
2019-05-16T14:49:41.819Z,12.30
2019-05-16T14:52:11.815Z,12.47
2019-05-16T14:54:41.818Z,12.38
2019-05-16T14:57:12.012Z,12.42
2019-05-16T14:59:42.051Z,12.22
2019-05-16T15:02:12.055Z,12.30
2019-05-16T15:04:42.031Z,12.55
2019-05-16T15:07:12.051Z,12.14
2019-05-16T15:09:42.055Z,12.17
2019-05-16T15:12:12.147Z,12.21
2019-05-16T15:14:42.152Z,12.22
2019-05-16T15:17:12.165Z,12.15
2019-05-16T15:19:42.154Z,12.34
2019-05-16T15:22:12.270Z,12.30
2019-05-16T15:24:42.247Z,12.52
2019-05-16T15:27:16.858Z,12.12
2019-05-16T15:29:48.160Z,12.07
2019-05-16T15:32:17.979Z,11.99
2019-05-16T15:34:48.239Z,12.06
2019-05-16T15:37:18.204Z,12.06
2019-05-16T15:39:48.211Z,12.14
2019-05-16T15:42:18.354Z,12.14
2019-05-16T15:44:48.345Z,12.04
2019-05-16T15:47:18.383Z,12.09
2019-05-16T15:49:48.353Z,12.26
2019-05-16T15:52:18.467Z,12.25
2019-05-16T15:54:49.229Z,12.33
2019-05-16T15:57:19.354Z,12.24
2019-05-16T15:59:49.340Z,12.17
2019-05-16T16:02:19.343Z,12.44
2019-05-16T16:04:49.339Z,12.17
2019-05-16T16:07:19.400Z,12.31
2019-05-16T16:09:49.463Z,12.45
2019-05-16T16:12:19.483Z,12.45
2019-05-16T16:14:49.468Z,12.59
2019-05-16T16:17:19.541Z,12.90
2019-05-16T16:19:49.554Z,12.70
2019-05-16T16:22:19.550Z,12.73
2019-05-16T16:24:49.550Z,12.86
2019-05-16T16:27:19.541Z,12.82
2019-05-16T16:29:49.561Z,12.85
2019-05-16T16:32:19.562Z,12.95
2019-05-16T16:34:49.562Z,13.12
2019-05-16T16:37:19.524Z,13.13
2019-05-16T16:39:49.548Z,13.03
2019-05-16T16:42:19.538Z,13.03
2019-05-16T16:44:50.628Z,12.93
2019-05-16T16:47:20.593Z,12.94
2019-05-16T16:49:50.686Z,13.11
2019-05-16T16:52:20.724Z,13.18
2019-05-16T16:54:50.744Z,13.01
2019-05-16T16:57:20.722Z,13.12
2019-05-16T16:59:50.764Z,12.99
2019-05-16T17:02:20.750Z,12.87
2019-05-16T17:04:51.973Z,12.89
2019-05-16T17:07:22.024Z,13.05
2019-05-16T17:09:52.047Z,13.02
2019-05-16T17:12:22.047Z,13.02
2019-05-16T17:14:52.052Z,12.99
2019-05-16T17:17:22.058Z,13.09
2019-05-16T17:19:52.126Z,12.98
2019-05-16T17:22:22.137Z,12.87
2019-05-16T17:24:52.155Z,12.95
2019-05-16T17:27:22.139Z,13.15
2019-05-16T17:29:52.230Z,13.03
2019-05-16T17:32:22.223Z,12.84
2019-05-16T17:34:52.337Z,13.04
2019-05-16T17:37:22.316Z,12.99
2019-05-16T17:39:52.321Z,13.17
2019-05-16T17:42:22.310Z,13.00
2019-05-16T17:44:52.417Z,12.97
2019-05-16T17:47:22.427Z,13.04
2019-05-16T17:49:52.433Z,12.97
2019-05-16T17:52:22.400Z,13.00
2019-05-16T17:54:53.390Z,13.18
2019-05-16T17:57:23.471Z,13.00
2019-05-16T17:59:53.478Z,12.99
2019-05-16T18:02:23.451Z,12.81
2019-05-16T18:04:53.449Z,12.85
2019-05-16T18:07:23.462Z,12.91
2019-05-16T18:09:53.549Z,12.90
2019-05-16T18:12:23.566Z,12.74
2019-05-16T18:14:53.577Z,12.95
2019-05-16T18:17:23.556Z,12.88
2019-05-16T18:19:53.596Z,12.95
2019-05-16T18:22:23.585Z,12.88
2019-05-16T18:24:53.602Z,12.86
2019-05-16T18:27:23.593Z,12.81
2019-05-16T18:29:53.595Z,12.65
2019-05-16T18:32:23.606Z,12.72
2019-05-16T18:34:53.665Z,12.72
2019-05-16T18:37:23.732Z,12.85
2019-05-16T18:39:53.748Z,12.79
2019-05-16T18:42:23.801Z,12.63
2019-05-16T18:44:53.816Z,12.78
2019-05-16T18:47:23.822Z,12.73
2019-05-16T18:49:53.855Z,12.63
2019-05-16T18:52:23.870Z,12.92
2019-05-16T18:54:53.876Z,12.75
2019-05-16T18:57:23.870Z,12.52
2019-05-16T18:59:53.858Z,12.65
2019-05-16T19:02:23.949Z,12.51
2019-05-16T19:04:53.951Z,12.51
2019-05-16T19:07:23.934Z,12.48
2019-05-16T19:09:53.927Z,12.35
2019-05-16T19:12:26.193Z,12.69
2019-05-16T19:14:57.097Z,12.65
2019-05-16T19:17:27.675Z,12.50
2019-05-16T19:19:57.859Z,12.53
2019-05-16T19:22:27.883Z,12.24
2019-05-16T19:24:57.915Z,12.54
2019-05-16T19:27:27.912Z,12.61
2019-05-16T19:29:57.880Z,12.45
2019-05-16T19:32:27.881Z,12.42
2019-05-16T19:34:57.868Z,12.49
2019-05-16T19:37:27.955Z,12.70
2019-05-16T19:39:58.003Z,12.70
2019-05-16T19:42:29.861Z,12.36
2019-05-16T19:44:59.701Z,12.63
2019-05-16T19:47:36.904Z,12.48
2019-05-16T19:50:01.423Z,12.66
2019-05-16T19:52:31.434Z,12.45
2019-05-16T19:55:01.413Z,12.45
2019-05-16T19:57:31.435Z,12.26
2019-05-16T20:00:01.441Z,12.21
2019-05-16T20:02:31.482Z,12.19
2019-05-16T20:05:01.489Z,12.23
2019-05-16T20:07:31.496Z,12.55
2019-05-16T20:10:01.486Z,12.69
2019-05-16T20:12:31.546Z,12.84
2019-05-16T20:15:08.072Z,12.84
2019-05-16T20:17:33.375Z,12.52
2019-05-16T20:20:03.412Z,12.46
2019-05-16T20:22:33.779Z,12.33
2019-05-16T20:25:04.041Z,12.35
2019-05-16T20:27:36.527Z,12.35
2019-05-16T20:30:06.726Z,12.38
2019-05-16T20:32:37.378Z,12.38
2019-05-16T20:35:08.859Z,12.34
2019-05-16T20:37:39.348Z,12.34
2019-05-16T20:40:12.421Z,12.18
2019-05-16T20:42:41.195Z,12.33
2019-05-16T20:45:12.124Z,12.38
2019-05-16T20:47:42.202Z,12.38
2019-05-16T20:50:12.913Z,12.41
2019-05-16T20:52:42.987Z,12.26
2019-05-16T20:55:13.811Z,12.05
2019-05-16T20:57:46.102Z,12.06
2019-05-16T21:00:17.561Z,12.22
2019-05-16T21:02:49.482Z,12.43
2019-05-16T21:05:19.018Z,12.21
2019-05-16T21:07:49.031Z,12.23
2019-05-16T21:10:19.920Z,12.24
2019-05-16T21:12:49.921Z,12.17
2019-05-16T21:15:19.885Z,12.21
2019-05-16T21:17:49.886Z,12.16
2019-05-16T21:20:19.927Z,12.00
2019-05-16T21:22:49.898Z,12.12
2019-05-16T21:25:19.911Z,12.35
2019-05-16T21:27:49.912Z,12.35
2019-05-16T21:30:20.083Z,12.32
2019-05-16T21:32:50.131Z,12.17
2019-05-16T21:35:20.244Z,12.05
2019-05-16T21:37:50.422Z,12.30
2019-05-16T21:40:20.512Z,12.09
2019-05-16T21:42:50.672Z,11.87
2019-05-16T21:45:20.737Z,11.97
2019-05-16T21:47:50.711Z,12.04
2019-05-16T21:50:20.788Z,12.05
2019-05-16T21:52:50.833Z,12.32
2019-05-16T21:55:20.834Z,12.11
2019-05-16T21:57:50.893Z,12.11
2019-05-16T22:00:27.332Z,12.10
2019-05-16T22:02:57.447Z,12.04
2019-05-16T22:05:27.395Z,11.96
2019-05-16T22:07:57.526Z,12.13
2019-05-16T22:10:27.843Z,12.26
2019-05-16T22:12:57.904Z,11.98
2019-05-16T22:15:28.152Z,12.28
2019-05-16T22:17:58.402Z,12.28
2019-05-16T22:20:28.599Z,12.27
2019-05-16T22:22:58.760Z,12.43
2019-05-16T22:25:28.837Z,11.88
2019-05-16T22:27:58.834Z,11.88
2019-05-16T22:30:28.844Z,11.94
2019-05-16T22:32:58.812Z,11.94
2019-05-16T22:35:28.826Z,11.97
2019-05-16T22:37:59.515Z,11.97
2019-05-16T22:40:29.630Z,12.02
2019-05-16T22:42:59.614Z,11.82
2019-05-16T22:45:29.601Z,11.85
2019-05-16T22:47:59.595Z,11.97
2019-05-16T22:50:29.584Z,11.97
2019-05-16T22:52:59.545Z,12.10
2019-05-16T22:55:29.539Z,11.97
2019-05-16T22:57:59.503Z,11.97
2019-05-16T23:00:31.200Z,11.86
2019-05-16T23:03:01.183Z,11.78
2019-05-16T23:05:31.182Z,11.98
2019-05-16T23:08:05.800Z,11.98
2019-05-16T23:10:32.916Z,12.10
2019-05-16T23:13:02.900Z,12.00
2019-05-16T23:15:32.894Z,11.95
2019-05-16T23:18:02.874Z,11.88
2019-05-16T23:20:32.898Z,11.94
2019-05-16T23:23:02.869Z,11.79
2019-05-16T23:25:32.914Z,12.06
2019-05-16T23:28:02.881Z,11.89
2019-05-16T23:30:32.872Z,11.95
2019-05-16T23:33:02.831Z,12.03
2019-05-16T23:35:32.834Z,12.14
2019-05-16T23:38:14.680Z,12.02
2019-05-16T23:40:34.482Z,12.38
2019-05-16T23:43:04.473Z,12.31
2019-05-16T23:45:34.466Z,12.00
2019-05-16T23:48:09.495Z,12.08
2019-05-16T23:50:36.729Z,12.30
2019-05-16T23:53:07.559Z,12.39
2019-05-16T23:55:37.673Z,11.94
2019-05-16T23:58:07.627Z,11.88
